Time;durP1;ratioP1;P1;durP2;ratioP2;P2;SDS_P1;SDS_P2;PMS_P1;PMS_P2;Temp;Humidity;BMP_temperature;BMP_pressure;BME280_temperature;BME280_humidity;BME280_pressure;Samples;Min_cycle;Max_cycle;Signal;HPM_P1;HPM_P2
2023/01/04 00:00:22;;;;;;;16.40;10.35;;;;;;;7.88;100.00;101638.56;5051175;28;20021;-45
2023/01/04 00:02:47;;;;;;;12.07;8.90;;;;;;;7.87;100.00;101652.94;5038725;28;20103;-45
2023/01/04 00:05:13;;;;;;;20.05;9.45;;;;;;;7.88;100.00;101643.94;5031586;28;20068;-45
2023/01/04 00:07:38;;;;;;;12.00;8.65;;;;;;;7.89;100.00;101638.41;5050753;28;20037;-45
2023/01/04 00:10:04;;;;;;;16.20;8.65;;;;;;;7.89;100.00;101657.19;5035710;28;20443;-45
2023/01/04 00:12:29;;;;;;;16.25;8.38;;;;;;;7.90;100.00;101615.16;5029539;28;20026;-45
2023/01/04 00:14:54;;;;;;;12.18;7.15;;;;;;;7.92;100.00;101645.31;5030922;28;20032;-45
2023/01/04 00:17:20;;;;;;;16.13;8.65;;;;;;;7.89;100.00;101618.81;5030985;28;20124;-45
2023/01/04 00:19:45;;;;;;;13.30;8.35;;;;;;;7.90;100.00;101648.16;5030919;28;20052;-45
2023/01/04 00:22:10;;;;;;;16.92;7.78;;;;;;;7.92;100.00;101642.63;5030339;28;20025;-45
2023/01/04 00:24:36;;;;;;;14.55;8.75;;;;;;;7.93;100.00;101624.75;5040925;28;20060;-46
2023/01/04 00:27:01;;;;;;;11.80;7.80;;;;;;;7.93;100.00;101622.91;5050605;28;20024;-45
2023/01/04 00:29:26;;;;;;;12.73;8.43;;;;;;;7.95;100.00;101612.84;5049357;28;20017;-44
2023/01/04 00:31:52;;;;;;;18.73;9.02;;;;;;;7.97;100.00;101618.09;5049674;28;20102;-45
2023/01/04 00:34:17;;;;;;;16.85;9.05;;;;;;;7.99;100.00;101618.78;5049524;28;20021;-44
2023/01/04 00:36:44;;;;;;;16.08;8.52;;;;;;;8.00;100.00;101620.47;5048764;28;20124;-44
2023/01/04 00:39:13;;;;;;;21.50;10.27;;;;;;;8.03;100.00;101598.72;5048115;28;20444;-43
2023/01/04 00:41:47;;;;;;;15.80;8.95;;;;;;;8.05;100.00;101599.44;5049620;28;20098;-44
2023/01/04 00:44:13;;;;;;;19.23;9.70;;;;;;;8.07;100.00;101595.63;5050408;28;20515;-44
2023/01/04 00:46:39;;;;;;;20.58;9.77;;;;;;;8.11;100.00;101585.47;5050345;28;20143;-43
2023/01/04 00:49:05;;;;;;;19.88;9.45;;;;;;;8.12;100.00;101579.94;5036301;28;20030;-43
2023/01/04 00:51:33;;;;;;;18.33;8.82;;;;;;;8.18;100.00;101574.97;5030582;28;20052;-44
2023/01/04 00:54:02;;;;;;;17.13;7.97;;;;;;;8.22;100.00;101603.19;5029978;28;20045;-42
2023/01/04 00:56:29;;;;;;;14.75;8.05;;;;;;;8.25;100.00;101602.91;5045948;28;20375;-42
2023/01/04 00:58:59;;;;;;;18.20;7.43;;;;;;;8.29;100.00;101574.75;5050270;28;20296;-41
2023/01/04 01:01:26;;;;;;;13.88;7.45;;;;;;;8.33;100.00;101589.59;5050351;28;20033;-41
2023/01/04 01:03:53;;;;;;;25.20;7.78;;;;;;;8.37;100.00;101572.19;5050485;28;20021;-42
2023/01/04 01:06:19;;;;;;;13.38;7.00;;;;;;;8.42;100.00;101563.72;5050176;28;20029;-43
2023/01/04 01:08:44;;;;;;;13.77;6.90;;;;;;;8.45;100.00;101569.66;5049058;28;20037;-42
2023/01/04 01:11:10;;;;;;;9.57;6.22;;;;;;;8.51;100.00;101573.56;5049696;28;20376;-43
2023/01/04 01:13:36;;;;;;;8.40;6.40;;;;;;;8.52;100.00;101589.50;5049429;28;20385;-44
2023/01/04 01:16:03;;;;;;;15.80;8.32;;;;;;;8.57;100.00;101568.44;5049853;28;20435;-43
2023/01/04 01:18:29;;;;;;;12.32;6.22;;;;;;;8.61;100.00;101562.75;5040295;28;20044;-43
2023/01/04 01:20:54;;;;;;;14.25;6.85;;;;;;;8.60;100.00;101564.59;5029614;28;20022;-42
2023/01/04 01:23:19;;;;;;;8.77;6.32;;;;;;;8.65;100.00;101566.84;5044680;28;20464;-42
2023/01/04 01:25:45;;;;;;;9.40;6.90;;;;;;;8.66;100.00;101569.38;5048425;28;20485;-42
2023/01/04 01:28:10;;;;;;;14.32;7.05;;;;;;;8.66;100.00;101573.88;5042530;28;20431;-41
2023/01/04 01:30:40;;;;;;;12.85;6.85;;;;;;;8.70;100.00;101556.50;5049556;28;20357;-41
2023/01/04 01:33:06;;;;;;;15.77;7.10;;;;;;;8.70;100.00;101569.91;5049569;28;20056;-41
2023/01/04 01:35:32;;;;;;;12.02;6.40;;;;;;;8.72;100.00;101565.25;5049411;28;20592;-42
2023/01/04 01:37:58;;;;;;;16.33;7.20;;;;;;;8.75;100.00;101543.47;5048393;28;20088;-42
2023/01/04 01:40:23;;;;;;;8.70;6.47;;;;;;;8.73;100.00;101558.88;5049508;28;20121;-42
2023/01/04 01:42:48;;;;;;;13.52;7.13;;;;;;;8.77;100.00;101561.09;5048968;28;20111;-42
2023/01/04 01:45:22;;;;;;;10.57;6.85;;;;;;;8.81;100.00;101548.22;5060390;28;20029;-41
2023/01/04 01:47:48;;;;;;;14.68;7.43;;;;;;;8.86;100.00;101566.53;5034549;28;20037;-40
2023/01/04 01:50:23;;;;;;;11.27;6.90;;;;;;;8.90;100.00;101541.06;5045305;28;20083;-40
2023/01/04 01:52:49;;;;;;;9.00;6.00;;;;;;;8.94;100.00;101540.63;5031179;28;20032;-41
2023/01/04 01:55:16;;;;;;;14.05;6.07;;;;;;;8.95;100.00;101542.31;5031011;28;20029;-40
2023/01/04 01:57:42;;;;;;;9.88;6.63;;;;;;;8.97;100.00;101551.03;5032710;28;20064;-40
2023/01/04 02:00:14;;;;;;;9.05;6.25;;;;;;;9.01;100.00;101552.44;5032660;28;20060;-40
2023/01/04 02:02:52;;;;;;;13.25;6.80;;;;;;;9.07;100.00;101539.38;5033124;28;20087;-40
2023/01/04 02:05:19;;;;;;;7.70;5.88;;;;;;;9.11;100.00;101540.75;5031486;28;20485;-38
2023/01/04 02:07:45;;;;;;;9.52;5.57;;;;;;;9.16;100.00;101549.19;5031920;28;20033;-40
2023/01/04 02:10:11;;;;;;;7.60;5.50;;;;;;;9.16;100.00;101574.22;5033072;28;20037;-40
2023/01/04 02:12:36;;;;;;;12.57;5.30;;;;;;;9.20;100.00;101546.03;5032755;28;20032;-40
2023/01/04 02:15:02;;;;;;;9.60;4.90;;;;;;;9.22;100.00;101557.47;5034882;28;20075;-40
2023/01/04 02:17:33;;;;;;;11.52;5.07;;;;;;;9.27;100.00;101553.47;5032562;28;20033;-39
2023/01/04 02:20:03;;;;;;;9.45;5.00;;;;;;;9.26;100.00;101560.69;5031434;28;20435;-40
2023/01/04 02:22:59;;;;;;;9.45;4.65;;;;;;;9.28;100.00;101552.47;5031346;28;20383;-40
2023/01/04 02:25:31;;;;;;;9.43;4.60;;;;;;;9.34;100.00;101574.19;5014774;28;20025;-39
2023/01/04 02:28:16;;;;;;;8.23;4.30;;;;;;;9.37;100.00;101540.78;5032370;28;20037;-40
2023/01/04 02:31:12;;;;;;;9.93;4.45;;;;;;;9.40;100.00;101541.34;5030695;28;20083;-39
2023/01/04 02:33:46;;;;;;;8.98;4.63;;;;;;;9.41;100.00;101532.25;5032638;28;20038;-40
2023/01/04 02:36:33;;;;;;;8.73;4.53;;;;;;;9.47;100.00;101524.56;5030753;28;20491;-37
2023/01/04 02:39:13;;;;;;;8.52;3.72;;;;;;;9.45;100.00;101525.59;5032085;28;20048;-40
2023/01/04 02:42:19;;;;;;;9.45;3.65;;;;;;;9.55;100.00;101516.56;5032142;28;20063;-39
2023/01/04 02:44:57;;;;;;;7.93;3.45;;;;;;;9.55;100.00;101522.78;5037273;28;20053;-39
2023/01/04 02:50:30;;;;;;;4.10;3.70;;;;;;;9.55;100.00;101520.09;5051123;28;20052;-40
2023/01/04 02:52:59;;;;;;;6.32;3.90;;;;;;;9.55;100.00;101521.94;5051912;28;20029;-40
2023/01/04 02:55:26;;;;;;;6.07;4.10;;;;;;;9.55;100.00;101503.13;5052335;28;20112;-40
2023/01/04 02:58:19;;;;;;;10.23;4.43;;;;;;;9.54;100.00;101514.88;5045195;28;20396;-40
2023/01/04 03:07:16;;;;;;;5.47;4.07;;;;;;;9.52;100.00;101498.06;5043017;28;20428;-40
2023/01/04 03:09:46;;;;;;;8.32;4.68;;;;;;;9.53;100.00;101492.56;5050309;28;20090;-40
2023/01/04 03:12:33;;;;;;;5.55;4.82;;;;;;;9.50;100.00;101483.94;5041641;28;20045;-40
2023/01/04 03:15:04;;;;;;;11.00;5.37;;;;;;;9.51;100.00;101486.50;5047356;28;20037;-40
2023/01/04 03:17:37;;;;;;;5.97;4.82;;;;;;;9.51;100.00;101482.97;5051425;28;20370;-40
2023/01/04 03:20:04;;;;;;;6.28;5.55;;;;;;;9.52;100.00;101496.22;5049811;28;20417;-40
2023/01/04 03:36:46;;;;;;;8.82;5.47;;;;;;;9.55;100.00;101482.47;5030460;28;20045;-40
2023/01/04 03:48:30;;;;;;;8.43;6.47;;;;;;;9.62;100.00;101471.94;5050816;28;20048;-40
2023/01/04 03:51:13;;;;;;;7.72;6.47;;;;;;;9.64;100.00;101454.66;5044997;28;20045;-40
2023/01/04 03:53:47;;;;;;;10.30;6.03;;;;;;;9.65;100.00;101464.38;5029945;28;20026;-39
2023/01/04 03:56:13;;;;;;;11.75;6.25;;;;;;;9.68;100.00;101455.16;5030492;28;20033;-38
2023/01/04 03:58:38;;;;;;;10.82;6.07;;;;;;;9.76;100.00;101460.56;5030733;28;20062;-38
2023/01/04 04:01:04;;;;;;;10.50;5.88;;;;;;;9.77;100.00;101467.63;5030667;28;20056;-40
2023/01/04 04:08:59;;;;;;;7.85;4.75;;;;;;;9.99;100.00;101436.63;5030619;28;20141;-39
2023/01/04 04:11:30;;;;;;;7.18;3.80;;;;;;;10.02;100.00;101420.16;5044827;28;20061;-40
2023/01/04 04:13:57;;;;;;;6.95;3.80;;;;;;;10.01;100.00;101420.34;5050361;28;20044;-40
2023/01/04 04:16:22;;;;;;;14.90;3.80;;;;;;;10.06;100.00;101424.22;5050310;28;20061;-40
2023/01/04 04:18:48;;;;;;;6.32;2.97;;;;;;;10.13;100.00;101437.00;5050144;28;20060;-39
2023/01/04 04:21:13;;;;;;;10.25;3.17;;;;;;;10.11;100.00;101415.66;5040272;28;20021;-40
2023/01/04 04:23:39;;;;;;;9.93;3.05;;;;;;;10.15;100.00;101421.53;5030281;28;20072;-40
2023/01/04 04:26:05;;;;;;;4.63;2.60;;;;;;;10.23;100.00;101419.69;5044152;28;20360;-40
2023/01/04 04:28:31;;;;;;;13.40;3.20;;;;;;;10.24;100.00;101415.16;5050148;28;20373;-40
2023/01/04 04:30:56;;;;;;;14.57;2.88;;;;;;;10.25;100.00;101422.22;5049795;28;20040;-40
2023/01/04 04:33:22;;;;;;;9.63;2.55;;;;;;;10.25;100.00;101390.78;5049961;28;20021;-39
2023/01/04 04:35:51;;;;;;;13.27;2.53;;;;;;;10.26;100.00;101383.56;5050018;28;20036;-40
2023/01/04 04:38:16;;;;;;;9.68;2.65;;;;;;;10.28;100.00;101387.78;5050023;28;20025;-40
2023/01/04 04:43:25;;;;;;;8.77;2.72;;;;;;;10.33;100.00;101388.13;5049938;28;20067;-40
2023/01/04 04:45:50;;;;;;;12.35;3.17;;;;;;;10.35;100.00;101400.56;5050019;28;20444;-40
2023/01/04 04:48:16;;;;;;;15.73;3.10;;;;;;;10.28;100.00;101395.03;5050103;28;20036;-42
2023/01/04 04:50:41;;;;;;;9.10;2.90;;;;;;;10.25;100.00;101396.16;5044371;28;20028;-45
2023/01/04 04:53:06;;;;;;;8.63;3.00;;;;;;;10.19;100.00;101395.97;5030001;28;20056;-45
2023/01/04 04:55:32;;;;;;;13.75;3.08;;;;;;;10.14;100.00;101385.75;5043432;28;20524;-45
2023/01/04 04:57:57;;;;;;;16.67;3.90;;;;;;;10.12;100.00;101395.81;5049977;28;20025;-45
2023/01/04 05:00:22;;;;;;;8.15;3.00;;;;;;;10.11;100.00;101380.69;5049873;28;20048;-45
2023/01/04 05:02:48;;;;;;;10.07;2.88;;;;;;;10.07;100.00;101379.34;5049996;28;20032;-45
2023/01/04 05:05:13;;;;;;;8.95;3.05;;;;;;;10.04;100.00;101376.97;5049423;28;20029;-45
2023/01/04 05:07:38;;;;;;;9.77;2.97;;;;;;;10.03;100.00;101369.91;5049771;28;20106;-45
2023/01/04 05:10:04;;;;;;;10.02;4.57;;;;;;;10.03;100.00;101376.13;5048366;28;20033;-45
2023/01/04 05:15:13;;;;;;;5.97;3.83;;;;;;;10.01;100.00;101366.56;5049586;28;20048;-44
2023/01/04 05:17:38;;;;;;;6.70;4.38;;;;;;;10.01;100.00;101388.91;5049756;28;20026;-45
2023/01/04 05:20:04;;;;;;;11.93;4.25;;;;;;;10.02;100.00;101365.53;5044011;28;20414;-44
2023/01/04 05:22:29;;;;;;;9.00;5.10;;;;;;;10.04;100.00;101377.81;5029615;28;20083;-44
2023/01/04 05:24:55;;;;;;;10.23;5.28;;;;;;;10.08;100.00;101384.56;5029573;28;20021;-45
2023/01/04 05:27:20;;;;;;;9.60;5.72;;;;;;;10.04;100.00;101361.69;5031278;28;20057;-45
2023/01/04 05:32:29;;;;;;;11.73;5.00;;;;;;;10.02;100.00;101363.69;5033617;28;20352;-45
2023/01/04 05:34:55;;;;;;;9.05;5.85;;;;;;;10.06;100.00;101358.84;5038918;28;20108;-44
2023/01/04 05:37:20;;;;;;;9.45;5.40;;;;;;;10.06;100.00;101340.84;5053302;28;20039;-43
2023/01/04 05:39:45;;;;;;;10.13;5.70;;;;;;;10.04;100.00;101379.66;5053206;28;20495;-44
2023/01/04 05:42:26;;;;;;;13.65;5.32;;;;;;;10.08;100.00;101357.66;5053237;28;20036;-42
2023/01/04 05:44:57;;;;;;;9.35;5.50;;;;;;;10.08;100.00;101357.66;5053313;28;20491;-42
2023/01/04 05:47:23;;;;;;;16.13;5.57;;;;;;;10.13;100.00;101365.22;5053370;28;20021;-43
2023/01/04 05:49:49;;;;;;;9.93;5.00;;;;;;;10.14;100.00;101384.88;5051558;28;20033;-42
2023/01/04 05:52:14;;;;;;;12.65;6.20;;;;;;;10.21;100.00;101383.22;5033169;28;20116;-42
2023/01/04 05:54:40;;;;;;;10.57;4.90;;;;;;;10.24;100.00;101412.47;5033094;28;20098;-42
2023/01/04 05:57:06;;;;;;;8.40;4.80;;;;;;;10.27;100.00;101378.06;5034462;28;20060;-42
2023/01/04 05:59:31;;;;;;;7.70;4.70;;;;;;;10.29;100.00;101392.19;5052902;28;20033;-40
2023/01/04 06:01:56;;;;;;;11.23;4.75;;;;;;;10.30;100.00;101366.94;5052739;28;20063;-40
2023/01/04 06:04:22;;;;;;;18.45;4.72;;;;;;;10.32;100.00;101378.38;5040941;28;20033;-40
2023/01/04 06:06:47;;;;;;;8.77;4.28;;;;;;;10.36;100.00;101359.22;5032790;28;20032;-41
2023/01/04 06:09:12;;;;;;;13.57;4.35;;;;;;;10.36;100.00;101367.28;5032956;28;20032;-40
2023/01/04 06:11:38;;;;;;;11.27;3.78;;;;;;;10.44;100.00;101362.75;5032959;28;20021;-42
2023/01/04 06:14:03;;;;;;;13.60;3.35;;;;;;;10.46;100.00;101347.28;5033115;28;20025;-40
2023/01/04 06:16:29;;;;;;;14.48;3.17;;;;;;;10.46;100.00;101351.81;5032724;28;20083;-40
2023/01/04 06:18:54;;;;;;;16.27;3.42;;;;;;;10.51;100.00;101361.06;5041193;28;20295;-41
2023/01/04 06:21:20;;;;;;;12.40;3.38;;;;;;;10.49;100.00;101359.56;5039972;28;20029;-41
2023/01/04 06:23:45;;;;;;;12.82;2.95;;;;;;;10.52;100.00;101353.81;5048078;28;20427;-44
2023/01/04 06:26:10;;;;;;;22.77;3.70;;;;;;;10.51;100.00;101353.00;5052427;28;20021;-43
2023/01/04 06:28:36;;;;;;;16.88;3.50;;;;;;;10.47;100.00;101345.41;5051723;28;20035;-44
2023/01/04 06:31:06;;;;;;;20.13;3.85;;;;;;;10.47;100.00;101350.81;5051635;28;20021;-44
2023/01/04 06:33:32;;;;;;;16.10;3.38;;;;;;;10.52;100.00;101326.91;5043319;28;20079;-43
2023/01/04 06:35:58;;;;;;;25.10;3.58;;;;;;;10.50;100.00;101350.47;5032268;28;20029;-42
2023/01/04 06:38:23;;;;;;;16.50;3.55;;;;;;;10.53;100.00;101340.22;5031139;28;20036;-42
2023/01/04 06:40:48;;;;;;;19.30;3.47;;;;;;;10.55;100.00;101329.25;5043221;28;20562;-41
2023/01/04 06:43:14;;;;;;;26.00;3.95;;;;;;;10.59;100.00;101330.63;5031822;28;20025;-41
2023/01/04 06:45:39;;;;;;;19.83;3.33;;;;;;;10.61;100.00;101331.28;5045993;28;20025;-41
2023/01/04 06:48:05;;;;;;;36.35;5.10;;;;;;;10.61;100.00;101320.53;5050808;28;20036;-40
2023/01/04 06:50:30;;;;;;;31.88;3.83;;;;;;;10.67;100.00;101324.38;5052003;28;20074;-40
2023/01/04 06:52:55;;;;;;;26.10;3.60;;;;;;;10.67;100.00;101316.31;5051900;28;20487;-40
2023/01/04 06:55:21;;;;;;;23.98;3.50;;;;;;;10.66;100.00;101318.13;5051778;28;20478;-39
2023/01/04 06:57:46;;;;;;;21.15;3.50;;;;;;;10.66;100.00;101323.53;5051887;28;20079;-41
2023/01/04 07:00:12;;;;;;;19.25;3.55;;;;;;;10.63;100.00;101304.19;5050671;28;20111;-44
2023/01/04 07:02:37;;;;;;;18.48;3.97;;;;;;;10.64;100.00;101330.13;5052046;28;20033;-45
2023/01/04 07:05:03;;;;;;;24.45;3.80;;;;;;;10.64;100.00;101316.66;5049656;28;20469;-44
2023/01/04 07:07:28;;;;;;;23.63;4.25;;;;;;;10.62;100.00;101319.50;5051705;28;20029;-46
2023/01/04 07:09:54;;;;;;;25.17;3.60;;;;;;;10.62;100.00;101305.22;5051789;28;20541;-44
2023/01/04 07:12:19;;;;;;;20.88;3.63;;;;;;;10.56;100.00;101312.13;5033843;28;20381;-45
2023/01/04 07:14:44;;;;;;;24.88;3.85;;;;;;;10.54;100.00;101303.38;5031543;28;20025;-45
2023/01/04 07:17:10;;;;;;;16.75;3.17;;;;;;;10.51;100.00;101287.56;5031358;28;20034;-44
2023/01/04 07:19:35;;;;;;;19.15;3.60;;;;;;;10.49;100.00;101300.34;5037132;28;20032;-45
2023/01/04 07:22:00;;;;;;;28.75;3.75;;;;;;;10.50;100.00;101315.47;5051171;28;20484;-44
2023/01/04 07:24:26;;;;;;;37.92;4.28;;;;;;;10.51;100.00;101304.56;5051470;28;20373;-44
2023/01/04 07:26:51;;;;;;;19.63;3.53;;;;;;;10.47;100.00;101323.88;5051249;28;20037;-45
2023/01/04 07:29:17;;;;;;;23.25;3.30;;;;;;;10.47;100.00;101305.06;5051222;28;20021;-44
2023/01/04 07:31:47;;;;;;;19.58;3.60;;;;;;;10.45;100.00;101294.47;5050840;28;20110;-45
2023/01/04 07:34:14;;;;;;;26.42;4.10;;;;;;;10.39;100.00;101297.00;5049167;28;20032;-44
2023/01/04 07:36:40;;;;;;;30.73;4.05;;;;;;;10.35;100.00;101309.09;5050736;28;20025;-44
2023/01/04 07:39:06;;;;;;;17.23;3.30;;;;;;;10.37;100.00;101307.06;5044057;28;20040;-44
2023/01/04 07:41:32;;;;;;;23.35;4.03;;;;;;;10.32;100.00;101319.19;5041788;28;20021;-44
2023/01/04 07:43:57;;;;;;;23.35;3.85;;;;;;;10.31;100.00;101320.19;5041827;28;20064;-45
2023/01/04 07:46:23;;;;;;;26.52;3.53;;;;;;;10.31;100.00;101297.84;5040051;28;20032;-45
2023/01/04 07:48:48;;;;;;;21.02;3.22;;;;;;;10.29;100.00;101316.84;5039930;28;20511;-44
2023/01/04 07:51:13;;;;;;;26.35;4.53;;;;;;;10.30;100.00;101299.69;5040701;28;20052;-44
2023/01/04 07:53:39;;;;;;;30.67;4.25;;;;;;;10.28;100.00;101309.78;5042773;28;20432;-44
2023/01/04 07:56:04;;;;;;;34.53;4.95;;;;;;;10.30;100.00;101299.69;5040965;28;20029;-45
2023/01/04 07:58:31;;;;;;;40.50;4.95;;;;;;;10.28;100.00;101325.91;5041185;28;20013;-43
2023/01/04 08:01:08;;;;;;;46.35;6.15;;;;;;;10.27;100.00;101308.09;5041168;28;20116;-43
2023/01/04 08:03:33;;;;;;;44.35;6.53;;;;;;;10.26;100.00;101338.66;5038355;28;20031;-44
2023/01/04 08:06:03;;;;;;;56.75;6.10;;;;;;;10.23;100.00;101312.09;5041003;28;20025;-43
2023/01/04 08:08:29;;;;;;;58.67;6.88;;;;;;;10.21;100.00;101314.09;5039989;28;20033;-43
2023/01/04 08:10:54;;;;;;;56.13;5.95;;;;;;;10.19;100.00;101359.19;5041367;28;20535;-43
2023/01/04 08:13:19;;;;;;;60.05;7.28;;;;;;;10.19;100.00;101334.97;5036632;28;20033;-45
2023/01/04 08:15:51;;;;;;;47.65;6.47;;;;;;;10.19;100.00;101317.97;5040133;28;20037;-45
2023/01/04 08:18:16;;;;;;;38.35;5.45;;;;;;;10.19;100.00;101320.66;5040610;28;20103;-44
2023/01/04 08:20:42;;;;;;;48.28;5.13;;;;;;;10.19;100.00;101331.41;5042266;28;20112;-44
2023/01/04 08:23:07;;;;;;;57.75;6.80;;;;;;;10.17;100.00;101350.44;5040252;28;20049;-45
2023/01/04 08:25:32;;;;;;;42.40;5.63;;;;;;;10.16;100.00;101332.59;5039505;28;20032;-42
2023/01/04 08:27:58;;;;;;;66.22;8.57;;;;;;;10.16;100.00;101364.88;5041782;28;20040;-42
2023/01/04 08:30:23;;;;;;;70.03;7.70;;;;;;;10.17;100.00;101333.47;5038861;28;20029;-42
2023/01/04 08:32:49;;;;;;;79.97;8.60;;;;;;;10.17;100.00;101354.97;5041311;28;20065;-42
2023/01/04 08:35:14;;;;;;;79.85;7.75;;;;;;;10.18;100.00;101367.41;5035821;28;20159;-42
2023/01/04 08:37:40;;;;;;;79.25;7.90;;;;;;;10.18;100.00;101344.03;5038605;28;20025;-44
2023/01/04 08:40:06;;;;;;;76.63;8.73;;;;;;;10.20;100.00;101336.66;5038918;28;20056;-43
2023/01/04 08:42:31;;;;;;;67.68;7.47;;;;;;;10.21;100.00;101362.53;5039484;28;20384;-44
2023/01/04 08:44:57;;;;;;;46.63;5.97;;;;;;;10.21;100.00;101362.53;5041431;28;20112;-43
2023/01/04 08:47:22;;;;;;;80.25;7.25;;;;;;;10.19;100.00;101359.19;5038803;28;20433;-44
2023/01/04 08:49:47;;;;;;;59.05;7.78;;;;;;;10.18;100.00;101375.47;5040538;28;20223;-44
2023/01/04 08:52:14;;;;;;;72.63;7.07;;;;;;;10.19;100.00;101363.69;5040096;28;20021;-43
2023/01/04 08:54:40;;;;;;;62.75;7.38;;;;;;;10.20;100.00;101371.63;5040011;28;20029;-43
2023/01/04 08:57:05;;;;;;;52.45;6.90;;;;;;;10.21;100.00;101353.63;5039312;28;20035;-43
2023/01/04 08:59:30;;;;;;;56.03;5.85;;;;;;;10.20;100.00;101377.00;5039759;28;20017;-43
2023/01/04 09:01:56;;;;;;;73.75;7.55;;;;;;;10.21;100.00;101367.91;5038201;28;20502;-43
2023/01/04 09:04:21;;;;;;;49.58;6.03;;;;;;;10.23;100.00;101373.13;5036536;28;20033;-43
2023/01/04 09:06:46;;;;;;;58.17;5.68;;;;;;;10.24;100.00;101378.34;5037455;28;20247;-41
2023/01/04 09:09:13;;;;;;;47.13;5.55;;;;;;;10.24;100.00;101381.03;5041836;28;20460;-43
2023/01/04 09:11:38;;;;;;;50.15;5.80;;;;;;;10.26;100.00;101419.34;5041401;28;20453;-43
2023/01/04 09:14:04;;;;;;;45.53;6.32;;;;;;;10.27;100.00;101383.44;5041429;28;20022;-41
2023/01/04 09:16:29;;;;;;;45.83;6.22;;;;;;;10.24;100.00;101420.53;5039402;28;20026;-42
2023/01/04 09:18:55;;;;;;;58.70;7.55;;;;;;;10.26;100.00;101367.41;5041858;28;20037;-41
2023/01/04 09:21:21;;;;;;;65.10;7.50;;;;;;;10.28;100.00;101389.66;5039268;28;20432;-44
2023/01/04 09:23:46;;;;;;;53.15;7.07;;;;;;;10.30;100.00;101390.31;5041139;28;20604;-42
2023/01/04 09:26:15;;;;;;;53.80;6.10;;;;;;;10.29;100.00;101408.31;5040684;28;20107;-43
2023/01/04 09:28:41;;;;;;;61.97;8.80;;;;;;;10.27;100.00;101399.56;5039682;28;20023;-42
2023/01/04 09:31:11;;;;;;;61.17;8.13;;;;;;;10.26;100.00;101407.75;5041016;28;20041;-42
2023/01/04 09:33:36;;;;;;;53.85;6.30;;;;;;;10.27;100.00;101404.09;5039579;28;20034;-42
2023/01/04 09:36:02;;;;;;;63.80;7.40;;;;;;;10.30;100.00;101403.78;5039638;28;20692;-42
2023/01/04 09:38:28;;;;;;;64.70;7.28;;;;;;;10.29;100.00;101394.88;5040357;28;20570;-41
2023/01/04 09:41:11;;;;;;;71.38;7.13;;;;;;;10.31;100.00;101400.06;5039337;28;20100;-41
2023/01/04 09:43:45;;;;;;;56.92;6.75;;;;;;;10.32;100.00;101399.91;5038903;28;20025;-40
2023/01/04 09:46:17;;;;;;;74.07;7.00;;;;;;;10.33;100.00;101398.06;5036338;28;20033;-40
2023/01/04 09:48:43;;;;;;;52.78;5.32;;;;;;;10.35;100.00;101444.47;5039635;28;20091;-40
2023/01/04 09:51:15;;;;;;;57.95;5.57;;;;;;;10.39;100.00;101407.31;5036805;28;20022;-41
2023/01/04 09:53:45;;;;;;;55.88;6.25;;;;;;;10.38;100.00;101419.09;5038031;28;20447;-39
2023/01/04 09:56:24;;;;;;;49.60;5.13;;;;;;;10.36;100.00;101419.25;5032432;28;20235;-40
2023/01/04 09:58:50;;;;;;;52.42;5.97;;;;;;;10.36;100.00;101396.88;5035615;28;20041;-40
2023/01/04 10:01:21;;;;;;;52.60;5.88;;;;;;;10.37;100.00;101403.94;5032821;28;20469;-40
2023/01/04 10:03:53;;;;;;;43.22;5.57;;;;;;;10.36;100.00;101399.56;5046504;28;20056;-40
2023/01/04 10:06:19;;;;;;;44.70;4.72;;;;;;;10.37;100.00;101398.56;5049073;28;20040;-38
2023/01/04 10:08:44;;;;;;;50.05;5.57;;;;;;;10.39;100.00;101391.16;5050037;28;20025;-40
2023/01/04 10:11:22;;;;;;;36.55;4.88;;;;;;;10.38;100.00;101402.94;5049391;28;20033;-40
2023/01/04 10:14:02;;;;;;;28.60;3.63;;;;;;;10.37;100.00;101402.09;5049589;28;20075;-39
2023/01/04 10:16:51;;;;;;;48.65;5.32;;;;;;;10.37;100.00;101393.19;5048452;28;20064;-41
2023/01/04 10:19:37;;;;;;;39.95;4.65;;;;;;;10.36;100.00;101386.97;5050368;28;20442;-40
2023/01/04 10:22:19;;;;;;;32.47;4.60;;;;;;;10.35;100.00;101405.94;5052655;28;20033;-37
2023/01/04 10:24:52;;;;;;;40.65;4.55;;;;;;;10.35;100.00;101385.28;5035151;28;20084;-39
2023/01/04 10:27:39;;;;;;;31.85;5.32;;;;;;;10.37;100.00;101398.56;5031888;28;20060;-40
2023/01/04 10:30:16;;;;;;;30.05;5.50;;;;;;;10.38;100.00;101390.34;5032178;28;20033;-40
2023/01/04 10:32:47;;;;;;;39.72;4.68;;;;;;;10.38;100.00;101386.81;5050829;28;20076;-39
2023/01/04 10:35:26;;;;;;;38.03;4.45;;;;;;;10.40;100.00;101400.91;5052554;28;20098;-40
2023/01/04 10:37:56;;;;;;;36.28;4.60;;;;;;;10.39;100.00;101397.38;5052311;28;20033;-40
2023/01/04 10:40:21;;;;;;;48.17;5.15;;;;;;;10.39;100.00;101408.16;5052476;28;20040;-41
2023/01/04 10:42:52;;;;;;;40.55;5.13;;;;;;;10.41;100.00;101391.84;5051134;28;20380;-41
2023/01/04 10:45:53;;;;;;;40.42;4.28;;;;;;;10.43;100.00;101405.97;5049198;28;20504;-42
2023/01/04 10:48:37;;;;;;;25.52;3.95;;;;;;;10.41;100.00;101398.06;5040984;28;20037;-43
2023/01/04 10:51:05;;;;;;;27.15;3.50;;;;;;;10.43;100.00;101397.91;5032479;28;20033;-43
2023/01/04 10:53:40;;;;;;;35.83;4.43;;;;;;;10.43;100.00;101414.06;5032490;28;20032;-42
2023/01/04 10:56:27;;;;;;;33.25;4.47;;;;;;;10.45;100.00;101390.50;5034678;28;20030;-43
2023/01/04 10:59:15;;;;;;;35.42;4.43;;;;;;;10.49;100.00;101378.38;5031241;28;20033;-42
2023/01/04 11:01:49;;;;;;;36.88;3.92;;;;;;;10.50;100.00;101378.22;5032457;28;20030;-42
2023/01/04 11:04:26;;;;;;;43.78;5.15;;;;;;;10.52;100.00;101369.97;5032264;28;20048;-41
2023/01/04 11:06:57;;;;;;;28.17;4.18;;;;;;;10.53;100.00;101363.56;5032174;28;20530;-40
2023/01/04 11:09:26;;;;;;;41.85;4.32;;;;;;;10.53;100.00;101361.75;5032024;28;20025;-41
2023/01/04 11:11:54;;;;;;;40.40;5.30;;;;;;;10.55;100.00;101364.25;5031721;28;20163;-40
2023/01/04 11:14:20;;;;;;;35.97;4.10;;;;;;;10.56;100.00;101355.19;5030776;28;20045;-38
2023/01/04 11:16:49;;;;;;;42.65;4.25;;;;;;;10.57;100.00;101356.03;5042894;28;20111;-40
2023/01/04 11:19:15;;;;;;;41.42;5.90;;;;;;;10.59;100.00;101348.63;5044059;28;20021;-39
2023/01/04 11:21:49;;;;;;;45.00;5.18;;;;;;;10.59;100.00;101343.25;5051592;28;20544;-40
2023/01/04 11:24:16;;;;;;;40.95;5.15;;;;;;;10.60;100.00;101337.66;5049949;28;20107;-41
2023/01/04 11:26:42;;;;;;;27.70;4.57;;;;;;;10.62;100.00;101343.72;5049816;28;20040;-39
2023/01/04 11:29:22;;;;;;;43.15;4.97;;;;;;;10.62;100.00;101332.97;5051966;28;20460;-40
2023/01/04 11:31:52;;;;;;;44.95;4.93;;;;;;;10.64;100.00;101340.88;5051856;28;20423;-40
2023/01/04 11:34:18;;;;;;;37.20;5.75;;;;;;;10.65;100.00;101408.00;5047465;28;20040;-40
2023/01/04 11:36:46;;;;;;;58.70;6.53;;;;;;;10.64;100.00;101349.78;5050368;28;20029;-40
2023/01/04 11:39:19;;;;;;;41.90;5.68;;;;;;;10.63;100.00;101345.41;5050508;28;20125;-40
2023/01/04 11:41:57;;;;;;;46.80;6.00;;;;;;;10.63;100.00;101350.78;5051396;28;20021;-40
2023/01/04 11:44:23;;;;;;;41.38;4.93;;;;;;;10.65;100.00;101391.00;5051242;28;20092;-40
2023/01/04 11:47:24;;;;;;;48.28;5.97;;;;;;;10.64;100.00;101352.47;5051142;28;20021;-40
2023/01/04 11:49:50;;;;;;;43.72;5.20;;;;;;;10.65;100.00;101351.47;5035928;28;20045;-40
2023/01/04 11:52:36;;;;;;;57.13;6.63;;;;;;;10.67;100.00;101354.84;5037798;28;20033;-40
2023/01/04 11:55:24;;;;;;;47.88;5.15;;;;;;;10.67;100.00;101349.44;5031532;28;20018;-40
2023/01/04 11:58:06;;;;;;;55.22;5.15;;;;;;;10.69;100.00;101341.19;5031381;28;20037;-40
2023/01/04 12:00:32;;;;;;;40.90;5.50;;;;;;;10.69;100.00;101342.03;5031349;28;20037;-40
2023/01/04 12:03:11;;;;;;;47.85;6.15;;;;;;;10.73;100.00;101351.44;5030714;28;20026;-40
2023/01/04 12:05:36;;;;;;;47.45;4.97;;;;;;;10.73;100.00;101362.22;5029667;28;20365;-39
2023/01/04 12:08:02;;;;;;;54.80;6.82;;;;;;;10.75;100.00;101341.34;5030880;28;20033;-40